sensor_id;sensor_type;location;lat;lon;timestamp;P1;durP1;ratioP1;P2;durP2;ratioP2
11998;SDS011;40817;51.520;9.954;2024-01-10T00:01:03;30.33;;;11.90;;
11998;SDS011;40817;51.520;9.954;2024-01-10T00:03:31;35.33;;;13.50;;
11998;SDS011;40817;51.520;9.954;2024-01-10T00:05:59;27.53;;;11.33;;
11998;SDS011;40817;51.520;9.954;2024-01-10T00:08:26;28.27;;;10.83;;
11998;SDS011;40817;51.520;9.954;2024-01-10T00:10:55;25.93;;;10.63;;
11998;SDS011;40817;51.520;9.954;2024-01-10T00:13:22;34.57;;;12.57;;
11998;SDS011;40817;51.520;9.954;2024-01-10T00:15:50;25.57;;;11.97;;
11998;SDS011;40817;51.520;9.954;2024-01-10T00:18:17;30.97;;;12.33;;
11998;SDS011;40817;51.520;9.954;2024-01-10T00:20:44;26.70;;;11.03;;
11998;SDS011;40817;51.520;9.954;2024-01-10T00:23:12;24.00;;;9.80;;
11998;SDS011;40817;51.520;9.954;2024-01-10T00:25:40;22.33;;;10.27;;
11998;SDS011;40817;51.520;9.954;2024-01-10T00:28:08;21.33;;;9.87;;
11998;SDS011;40817;51.520;9.954;2024-01-10T00:30:37;23.50;;;10.10;;
11998;SDS011;40817;51.520;9.954;2024-01-10T00:33:05;25.10;;;10.73;;
11998;SDS011;40817;51.520;9.954;2024-01-10T00:35:32;23.77;;;10.80;;
11998;SDS011;40817;51.520;9.954;2024-01-10T00:38:00;27.60;;;12.70;;
11998;SDS011;40817;51.520;9.954;2024-01-10T00:40:27;29.23;;;12.47;;
11998;SDS011;40817;51.520;9.954;2024-01-10T00:42:55;26.47;;;12.37;;
11998;SDS011;40817;51.520;9.954;2024-01-10T00:45:24;28.03;;;12.67;;
11998;SDS011;40817;51.520;9.954;2024-01-10T00:47:51;22.57;;;10.77;;
11998;SDS011;40817;51.520;9.954;2024-01-10T00:50:18;24.47;;;11.07;;
11998;SDS011;40817;51.520;9.954;2024-01-10T00:52:46;24.70;;;11.97;;
11998;SDS011;40817;51.520;9.954;2024-01-10T00:55:13;27.77;;;11.03;;
11998;SDS011;40817;51.520;9.954;2024-01-10T00:57:41;21.33;;;9.33;;
11998;SDS011;40817;51.520;9.954;2024-01-10T01:00:09;23.80;;;11.33;;
11998;SDS011;40817;51.520;9.954;2024-01-10T01:02:40;23.63;;;11.03;;
11998;SDS011;40817;51.520;9.954;2024-01-10T01:05:07;24.23;;;11.50;;
11998;SDS011;40817;51.520;9.954;2024-01-10T01:07:36;25.63;;;10.80;;
11998;SDS011;40817;51.520;9.954;2024-01-10T01:10:05;25.47;;;11.53;;
11998;SDS011;40817;51.520;9.954;2024-01-10T01:12:34;26.87;;;12.03;;
11998;SDS011;40817;51.520;9.954;2024-01-10T01:15:01;26.00;;;11.57;;
11998;SDS011;40817;51.520;9.954;2024-01-10T01:17:30;26.97;;;12.07;;
11998;SDS011;40817;51.520;9.954;2024-01-10T01:19:58;31.47;;;12.67;;
11998;SDS011;40817;51.520;9.954;2024-01-10T01:22:26;32.87;;;12.47;;
11998;SDS011;40817;51.520;9.954;2024-01-10T01:24:53;30.13;;;13.37;;
11998;SDS011;40817;51.520;9.954;2024-01-10T01:27:21;32.47;;;12.77;;
11998;SDS011;40817;51.520;9.954;2024-01-10T01:29:48;30.10;;;13.27;;
11998;SDS011;40817;51.520;9.954;2024-01-10T01:32:15;30.47;;;12.07;;
11998;SDS011;40817;51.520;9.954;2024-01-10T01:34:43;29.90;;;11.57;;
11998;SDS011;40817;51.520;9.954;2024-01-10T01:37:11;28.83;;;12.93;;
11998;SDS011;40817;51.520;9.954;2024-01-10T01:39:39;29.70;;;13.23;;
11998;SDS011;40817;51.520;9.954;2024-01-10T01:42:06;32.23;;;13.43;;
11998;SDS011;40817;51.520;9.954;2024-01-10T01:44:34;28.70;;;12.13;;
11998;SDS011;40817;51.520;9.954;2024-01-10T01:47:01;29.53;;;13.33;;
11998;SDS011;40817;51.520;9.954;2024-01-10T01:49:29;32.50;;;14.23;;
11998;SDS011;40817;51.520;9.954;2024-01-10T01:51:56;27.93;;;11.60;;
11998;SDS011;40817;51.520;9.954;2024-01-10T01:54:25;28.63;;;12.73;;
11998;SDS011;40817;51.520;9.954;2024-01-10T01:56:53;30.47;;;12.53;;
11998;SDS011;40817;51.520;9.954;2024-01-10T01:59:22;30.77;;;13.10;;
11998;SDS011;40817;51.520;9.954;2024-01-10T02:01:51;27.23;;;11.83;;
11998;SDS011;40817;51.520;9.954;2024-01-10T02:04:21;31.63;;;13.63;;
11998;SDS011;40817;51.520;9.954;2024-01-10T02:06:49;32.60;;;13.80;;
11998;SDS011;40817;51.520;9.954;2024-01-10T02:09:20;27.27;;;12.37;;
11998;SDS011;40817;51.520;9.954;2024-01-10T02:11:52;31.43;;;12.37;;
11998;SDS011;40817;51.520;9.954;2024-01-10T02:14:20;30.80;;;12.40;;
11998;SDS011;40817;51.520;9.954;2024-01-10T02:16:48;31.57;;;12.50;;
11998;SDS011;40817;51.520;9.954;2024-01-10T02:19:19;25.53;;;12.17;;
11998;SDS011;40817;51.520;9.954;2024-01-10T02:21:48;26.37;;;11.27;;
11998;SDS011;40817;51.520;9.954;2024-01-10T02:24:16;26.00;;;12.07;;
11998;SDS011;40817;51.520;9.954;2024-01-10T02:26:43;28.38;;;13.27;;
11998;SDS011;40817;51.520;9.954;2024-01-10T02:29:11;28.17;;;12.40;;
11998;SDS011;40817;51.520;9.954;2024-01-10T02:31:39;31.87;;;12.70;;
11998;SDS011;40817;51.520;9.954;2024-01-10T02:34:06;24.90;;;10.97;;
11998;SDS011;40817;51.520;9.954;2024-01-10T02:36:33;23.57;;;11.27;;
11998;SDS011;40817;51.520;9.954;2024-01-10T02:39:01;26.87;;;11.67;;
11998;SDS011;40817;51.520;9.954;2024-01-10T02:41:28;23.30;;;11.60;;
11998;SDS011;40817;51.520;9.954;2024-01-10T02:43:56;30.87;;;13.00;;
11998;SDS011;40817;51.520;9.954;2024-01-10T02:46:25;23.70;;;11.33;;
11998;SDS011;40817;51.520;9.954;2024-01-10T02:48:53;25.20;;;11.63;;
11998;SDS011;40817;51.520;9.954;2024-01-10T02:51:21;26.57;;;11.47;;
11998;SDS011;40817;51.520;9.954;2024-01-10T02:53:50;34.27;;;13.00;;
11998;SDS011;40817;51.520;9.954;2024-01-10T02:56:17;28.97;;;12.00;;
11998;SDS011;40817;51.520;9.954;2024-01-10T02:58:45;30.30;;;11.77;;
11998;SDS011;40817;51.520;9.954;2024-01-10T03:01:14;25.13;;;11.93;;
11998;SDS011;40817;51.520;9.954;2024-01-10T03:03:42;27.77;;;12.10;;
11998;SDS011;40817;51.520;9.954;2024-01-10T03:06:09;26.73;;;11.63;;
11998;SDS011;40817;51.520;9.954;2024-01-10T03:08:36;27.27;;;11.20;;
11998;SDS011;40817;51.520;9.954;2024-01-10T03:11:04;30.47;;;13.13;;
11998;SDS011;40817;51.520;9.954;2024-01-10T03:13:31;31.13;;;13.77;;
11998;SDS011;40817;51.520;9.954;2024-01-10T03:15:58;27.50;;;11.60;;
11998;SDS011;40817;51.520;9.954;2024-01-10T03:18:27;26.10;;;12.47;;
11998;SDS011;40817;51.520;9.954;2024-01-10T03:20:54;29.03;;;11.57;;
11998;SDS011;40817;51.520;9.954;2024-01-10T03:23:22;30.70;;;12.60;;
11998;SDS011;40817;51.520;9.954;2024-01-10T03:25:48;28.48;;;12.15;;
11998;SDS011;40817;51.520;9.954;2024-01-10T03:28:16;32.93;;;13.17;;
11998;SDS011;40817;51.520;9.954;2024-01-10T03:30:43;32.53;;;13.20;;
11998;SDS011;40817;51.520;9.954;2024-01-10T03:33:11;30.77;;;12.93;;
11998;SDS011;40817;51.520;9.954;2024-01-10T03:35:40;28.87;;;11.67;;
11998;SDS011;40817;51.520;9.954;2024-01-10T03:38:07;23.70;;;11.57;;
11998;SDS011;40817;51.520;9.954;2024-01-10T03:40:35;28.70;;;14.00;;
11998;SDS011;40817;51.520;9.954;2024-01-10T03:43:02;31.03;;;12.20;;
11998;SDS011;40817;51.520;9.954;2024-01-10T03:45:30;31.73;;;12.00;;
11998;SDS011;40817;51.520;9.954;2024-01-10T03:47:57;23.57;;;11.63;;
11998;SDS011;40817;51.520;9.954;2024-01-10T03:50:25;29.27;;;12.63;;
11998;SDS011;40817;51.520;9.954;2024-01-10T03:52:54;31.07;;;12.97;;
11998;SDS011;40817;51.520;9.954;2024-01-10T03:55:21;27.73;;;12.10;;
11998;SDS011;40817;51.520;9.954;2024-01-10T03:57:48;26.03;;;12.30;;
11998;SDS011;40817;51.520;9.954;2024-01-10T04:00:16;24.90;;;11.90;;
11998;SDS011;40817;51.520;9.954;2024-01-10T04:02:43;28.43;;;12.53;;
11998;SDS011;40817;51.520;9.954;2024-01-10T04:05:10;29.60;;;12.10;;
11998;SDS011;40817;51.520;9.954;2024-01-10T04:07:39;24.37;;;10.60;;
11998;SDS011;40817;51.520;9.954;2024-01-10T04:10:10;27.63;;;12.23;;
11998;SDS011;40817;51.520;9.954;2024-01-10T04:12:39;24.63;;;10.73;;
11998;SDS011;40817;51.520;9.954;2024-01-10T04:15:06;27.30;;;12.50;;
11998;SDS011;40817;51.520;9.954;2024-01-10T04:17:35;30.90;;;11.40;;
11998;SDS011;40817;51.520;9.954;2024-01-10T04:20:03;28.63;;;12.20;;
11998;SDS011;40817;51.520;9.954;2024-01-10T04:22:33;29.97;;;12.93;;
11998;SDS011;40817;51.520;9.954;2024-01-10T04:25:01;28.00;;;14.13;;
11998;SDS011;40817;51.520;9.954;2024-01-10T04:27:34;31.83;;;13.17;;
11998;SDS011;40817;51.520;9.954;2024-01-10T04:30:02;30.90;;;13.40;;
11998;SDS011;40817;51.520;9.954;2024-01-10T04:32:30;24.83;;;11.63;;
11998;SDS011;40817;51.520;9.954;2024-01-10T04:34:58;24.80;;;12.17;;
11998;SDS011;40817;51.520;9.954;2024-01-10T04:37:25;27.30;;;12.93;;
11998;SDS011;40817;51.520;9.954;2024-01-10T04:39:52;21.90;;;11.30;;
11998;SDS011;40817;51.520;9.954;2024-01-10T04:42:20;24.83;;;11.17;;
11998;SDS011;40817;51.520;9.954;2024-01-10T04:44:48;28.50;;;11.23;;
11998;SDS011;40817;51.520;9.954;2024-01-10T04:47:16;26.23;;;11.07;;
11998;SDS011;40817;51.520;9.954;2024-01-10T04:49:43;23.67;;;11.27;;
11998;SDS011;40817;51.520;9.954;2024-01-10T04:52:11;26.17;;;12.17;;
11998;SDS011;40817;51.520;9.954;2024-01-10T04:54:38;33.17;;;12.53;;
11998;SDS011;40817;51.520;9.954;2024-01-10T04:57:05;28.77;;;12.43;;
11998;SDS011;40817;51.520;9.954;2024-01-10T04:59:33;30.53;;;13.53;;
11998;SDS011;40817;51.520;9.954;2024-01-10T05:02:02;25.63;;;11.67;;
11998;SDS011;40817;51.520;9.954;2024-01-10T05:04:30;33.53;;;12.70;;
11998;SDS011;40817;51.520;9.954;2024-01-10T05:06:57;28.53;;;12.97;;
11998;SDS011;40817;51.520;9.954;2024-01-10T05:09:25;31.40;;;12.97;;
11998;SDS011;40817;51.520;9.954;2024-01-10T05:11:52;27.43;;;12.77;;
11998;SDS011;40817;51.520;9.954;2024-01-10T05:14:19;28.30;;;11.50;;
11998;SDS011;40817;51.520;9.954;2024-01-10T05:16:47;30.33;;;12.47;;
11998;SDS011;40817;51.520;9.954;2024-01-10T05:19:16;32.87;;;12.77;;
11998;SDS011;40817;51.520;9.954;2024-01-10T05:21:43;30.07;;;12.73;;
11998;SDS011;40817;51.520;9.954;2024-01-10T05:24:10;32.13;;;14.27;;
11998;SDS011;40817;51.520;9.954;2024-01-10T05:26:38;31.67;;;13.07;;
11998;SDS011;40817;51.520;9.954;2024-01-10T05:29:05;34.37;;;13.47;;
11998;SDS011;40817;51.520;9.954;2024-01-10T05:31:33;32.27;;;13.40;;
11998;SDS011;40817;51.520;9.954;2024-01-10T05:34:01;36.33;;;14.37;;
11998;SDS011;40817;51.520;9.954;2024-01-10T05:36:31;33.90;;;16.30;;
11998;SDS011;40817;51.520;9.954;2024-01-10T05:38:59;28.40;;;13.03;;
11998;SDS011;40817;51.520;9.954;2024-01-10T05:41:26;33.37;;;13.97;;
11998;SDS011;40817;51.520;9.954;2024-01-10T05:43:54;32.13;;;12.50;;
11998;SDS011;40817;51.520;9.954;2024-01-10T05:46:22;31.30;;;14.63;;
11998;SDS011;40817;51.520;9.954;2024-01-10T05:48:49;35.93;;;14.20;;
11998;SDS011;40817;51.520;9.954;2024-01-10T05:51:16;32.73;;;13.77;;
11998;SDS011;40817;51.520;9.954;2024-01-10T05:53:45;31.57;;;14.20;;
11998;SDS011;40817;51.520;9.954;2024-01-10T05:56:12;30.50;;;13.77;;
11998;SDS011;40817;51.520;9.954;2024-01-10T05:58:40;30.00;;;14.33;;
11998;SDS011;40817;51.520;9.954;2024-01-10T06:01:07;37.67;;;13.60;;
11998;SDS011;40817;51.520;9.954;2024-01-10T06:03:35;34.63;;;14.73;;
11998;SDS011;40817;51.520;9.954;2024-01-10T06:06:04;36.83;;;14.17;;
11998;SDS011;40817;51.520;9.954;2024-01-10T06:08:31;39.00;;;15.70;;
11998;SDS011;40817;51.520;9.954;2024-01-10T06:11:00;35.30;;;14.17;;
11998;SDS011;40817;51.520;9.954;2024-01-10T06:13:33;30.07;;;13.57;;
11998;SDS011;40817;51.520;9.954;2024-01-10T06:16:01;36.67;;;14.03;;
11998;SDS011;40817;51.520;9.954;2024-01-10T06:18:29;35.13;;;15.50;;
11998;SDS011;40817;51.520;9.954;2024-01-10T06:20:57;38.87;;;16.53;;
11998;SDS011;40817;51.520;9.954;2024-01-10T06:23:24;41.60;;;17.40;;
11998;SDS011;40817;51.520;9.954;2024-01-10T06:25:51;40.53;;;16.10;;
11998;SDS011;40817;51.520;9.954;2024-01-10T06:28:21;40.83;;;16.97;;
11998;SDS011;40817;51.520;9.954;2024-01-10T06:30:49;38.03;;;17.33;;
11998;SDS011;40817;51.520;9.954;2024-01-10T06:33:17;33.53;;;14.77;;
11998;SDS011;40817;51.520;9.954;2024-01-10T06:35:45;37.27;;;15.13;;
11998;SDS011;40817;51.520;9.954;2024-01-10T06:38:12;35.20;;;15.37;;
11998;SDS011;40817;51.520;9.954;2024-01-10T06:40:42;41.00;;;15.77;;
11998;SDS011;40817;51.520;9.954;2024-01-10T06:43:10;36.70;;;15.97;;
11998;SDS011;40817;51.520;9.954;2024-01-10T06:45:38;36.67;;;14.97;;
11998;SDS011;40817;51.520;9.954;2024-01-10T06:48:07;36.00;;;16.03;;
11998;SDS011;40817;51.520;9.954;2024-01-10T06:50:35;35.10;;;16.37;;
11998;SDS011;40817;51.520;9.954;2024-01-10T06:53:03;41.00;;;16.83;;
11998;SDS011;40817;51.520;9.954;2024-01-10T06:55:31;40.77;;;16.93;;
11998;SDS011;40817;51.520;9.954;2024-01-10T06:57:58;37.93;;;16.40;;
11998;SDS011;40817;51.520;9.954;2024-01-10T07:00:26;45.47;;;18.83;;
11998;SDS011;40817;51.520;9.954;2024-01-10T07:02:54;45.17;;;17.60;;
11998;SDS011;40817;51.520;9.954;2024-01-10T07:05:22;45.77;;;19.17;;
11998;SDS011;40817;51.520;9.954;2024-01-10T07:07:49;43.53;;;18.07;;
11998;SDS011;40817;51.520;9.954;2024-01-10T07:10:17;42.47;;;18.30;;
11998;SDS011;40817;51.520;9.954;2024-01-10T07:12:44;40.30;;;17.83;;
11998;SDS011;40817;51.520;9.954;2024-01-10T07:15:12;41.83;;;16.90;;
11998;SDS011;40817;51.520;9.954;2024-01-10T07:17:40;47.80;;;18.10;;
11998;SDS011;40817;51.520;9.954;2024-01-10T07:20:10;46.80;;;19.47;;
11998;SDS011;40817;51.520;9.954;2024-01-10T07:22:38;54.00;;;19.70;;
11998;SDS011;40817;51.520;9.954;2024-01-10T07:25:06;45.33;;;18.20;;
11998;SDS011;40817;51.520;9.954;2024-01-10T07:27:34;43.40;;;19.80;;
11998;SDS011;40817;51.520;9.954;2024-01-10T07:30:03;51.17;;;18.20;;
11998;SDS011;40817;51.520;9.954;2024-01-10T07:32:38;48.87;;;18.53;;
11998;SDS011;40817;51.520;9.954;2024-01-10T07:35:07;49.03;;;18.53;;
11998;SDS011;40817;51.520;9.954;2024-01-10T07:37:37;43.03;;;17.93;;
11998;SDS011;40817;51.520;9.954;2024-01-10T07:40:06;47.33;;;18.57;;
11998;SDS011;40817;51.520;9.954;2024-01-10T07:42:35;43.17;;;18.53;;
11998;SDS011;40817;51.520;9.954;2024-01-10T07:45:05;46.13;;;19.07;;
11998;SDS011;40817;51.520;9.954;2024-01-10T07:47:34;43.63;;;18.70;;
11998;SDS011;40817;51.520;9.954;2024-01-10T07:50:03;39.60;;;18.57;;
11998;SDS011;40817;51.520;9.954;2024-01-10T07:52:33;42.03;;;17.60;;
11998;SDS011;40817;51.520;9.954;2024-01-10T07:55:01;44.77;;;18.70;;
11998;SDS011;40817;51.520;9.954;2024-01-10T07:57:31;45.13;;;19.10;;
11998;SDS011;40817;51.520;9.954;2024-01-10T07:59:59;38.20;;;17.47;;
11998;SDS011;40817;51.520;9.954;2024-01-10T08:02:29;47.10;;;18.57;;
11998;SDS011;40817;51.520;9.954;2024-01-10T08:04:59;39.77;;;17.17;;
11998;SDS011;40817;51.520;9.954;2024-01-10T08:07:30;41.17;;;18.20;;
11998;SDS011;40817;51.520;9.954;2024-01-10T08:09:59;40.63;;;17.83;;
11998;SDS011;40817;51.520;9.954;2024-01-10T08:12:27;37.50;;;17.07;;
11998;SDS011;40817;51.520;9.954;2024-01-10T08:14:54;42.70;;;17.50;;
11998;SDS011;40817;51.520;9.954;2024-01-10T08:17:22;54.63;;;19.20;;
11998;SDS011;40817;51.520;9.954;2024-01-10T08:19:49;40.27;;;17.90;;
11998;SDS011;40817;51.520;9.954;2024-01-10T08:22:17;38.50;;;17.43;;
11998;SDS011;40817;51.520;9.954;2024-01-10T08:24:45;43.40;;;17.33;;
11998;SDS011;40817;51.520;9.954;2024-01-10T08:27:14;36.43;;;16.50;;
11998;SDS011;40817;51.520;9.954;2024-01-10T08:29:42;47.33;;;17.30;;
11998;SDS011;40817;51.520;9.954;2024-01-10T08:32:09;43.27;;;17.43;;
11998;SDS011;40817;51.520;9.954;2024-01-10T08:34:37;45.53;;;16.50;;
11998;SDS011;40817;51.520;9.954;2024-01-10T08:37:04;43.03;;;16.63;;
11998;SDS011;40817;51.520;9.954;2024-01-10T08:39:32;41.57;;;16.83;;
11998;SDS011;40817;51.520;9.954;2024-01-10T08:42:00;41.33;;;17.40;;
11998;SDS011;40817;51.520;9.954;2024-01-10T08:44:29;43.20;;;18.23;;
11998;SDS011;40817;51.520;9.954;2024-01-10T08:46:56;38.73;;;17.43;;
11998;SDS011;40817;51.520;9.954;2024-01-10T08:49:23;36.80;;;17.37;;
11998;SDS011;40817;51.520;9.954;2024-01-10T08:51:51;37.13;;;16.97;;
11998;SDS011;40817;51.520;9.954;2024-01-10T08:54:19;37.73;;;18.50;;
11998;SDS011;40817;51.520;9.954;2024-01-10T08:56:47;36.10;;;17.20;;
11998;SDS011;40817;51.520;9.954;2024-01-10T08:59:15;45.13;;;19.33;;
11998;SDS011;40817;51.520;9.954;2024-01-10T09:01:43;42.20;;;19.00;;
11998;SDS011;40817;51.520;9.954;2024-01-10T09:04:11;40.33;;;17.97;;
11998;SDS011;40817;51.520;9.954;2024-01-10T09:06:39;41.17;;;19.20;;
11998;SDS011;40817;51.520;9.954;2024-01-10T09:09:06;45.27;;;18.17;;
11998;SDS011;40817;51.520;9.954;2024-01-10T09:11:34;40.20;;;18.83;;
11998;SDS011;40817;51.520;9.954;2024-01-10T09:14:01;43.77;;;17.97;;
11998;SDS011;40817;51.520;9.954;2024-01-10T09:16:28;42.13;;;19.27;;
11998;SDS011;40817;51.520;9.954;2024-01-10T09:18:57;43.97;;;20.17;;
11998;SDS011;40817;51.520;9.954;2024-01-10T09:21:25;50.47;;;19.93;;
11998;SDS011;40817;51.520;9.954;2024-01-10T09:23:52;47.37;;;20.47;;
11998;SDS011;40817;51.520;9.954;2024-01-10T09:26:21;44.80;;;19.97;;
11998;SDS011;40817;51.520;9.954;2024-01-10T09:28:48;39.63;;;19.30;;
11998;SDS011;40817;51.520;9.954;2024-01-10T09:31:15;42.43;;;18.83;;
11998;SDS011;40817;51.520;9.954;2024-01-10T09:33:43;42.13;;;19.90;;
11998;SDS011;40817;51.520;9.954;2024-01-10T09:36:12;46.77;;;20.33;;
11998;SDS011;40817;51.520;9.954;2024-01-10T09:38:39;46.13;;;19.90;;
11998;SDS011;40817;51.520;9.954;2024-01-10T09:41:07;41.47;;;18.47;;
11998;SDS011;40817;51.520;9.954;2024-01-10T09:43:37;43.93;;;19.37;;
11998;SDS011;40817;51.520;9.954;2024-01-10T09:46:04;45.30;;;19.73;;
11998;SDS011;40817;51.520;9.954;2024-01-10T09:48:35;49.30;;;20.40;;
11998;SDS011;40817;51.520;9.954;2024-01-10T09:51:02;55.80;;;22.50;;
11998;SDS011;40817;51.520;9.954;2024-01-10T09:53:32;47.57;;;21.77;;
11998;SDS011;40817;51.520;9.954;2024-01-10T09:56:07;45.70;;;20.50;;
11998;SDS011;40817;51.520;9.954;2024-01-10T09:58:35;48.93;;;20.80;;
11998;SDS011;40817;51.520;9.954;2024-01-10T10:01:04;47.17;;;20.17;;
11998;SDS011;40817;51.520;9.954;2024-01-10T10:03:32;47.87;;;21.73;;
11998;SDS011;40817;51.520;9.954;2024-01-10T10:06:04;49.57;;;22.80;;
11998;SDS011;40817;51.520;9.954;2024-01-10T10:08:36;48.83;;;21.47;;
11998;SDS011;40817;51.520;9.954;2024-01-10T10:11:05;46.30;;;20.70;;
11998;SDS011;40817;51.520;9.954;2024-01-10T10:13:32;51.00;;;19.83;;
11998;SDS011;40817;51.520;9.954;2024-01-10T10:16:06;49.17;;;21.50;;
11998;SDS011;40817;51.520;9.954;2024-01-10T10:18:35;46.27;;;20.77;;
11998;SDS011;40817;51.520;9.954;2024-01-10T10:21:08;45.70;;;20.47;;
11998;SDS011;40817;51.520;9.954;2024-01-10T10:23:39;46.20;;;21.97;;
11998;SDS011;40817;51.520;9.954;2024-01-10T10:26:09;44.77;;;21.70;;
11998;SDS011;40817;51.520;9.954;2024-01-10T10:28:44;46.93;;;20.93;;
11998;SDS011;40817;51.520;9.954;2024-01-10T10:31:12;51.93;;;22.33;;
11998;SDS011;40817;51.520;9.954;2024-01-10T10:33:41;54.40;;;21.70;;
11998;SDS011;40817;51.520;9.954;2024-01-10T10:36:09;49.87;;;20.70;;
11998;SDS011;40817;51.520;9.954;2024-01-10T10:38:37;45.27;;;20.20;;
11998;SDS011;40817;51.520;9.954;2024-01-10T10:41:06;47.37;;;21.43;;
11998;SDS011;40817;51.520;9.954;2024-01-10T10:43:35;46.90;;;21.03;;
11998;SDS011;40817;51.520;9.954;2024-01-10T10:46:04;44.13;;;21.60;;
11998;SDS011;40817;51.520;9.954;2024-01-10T10:48:34;45.27;;;22.23;;
11998;SDS011;40817;51.520;9.954;2024-01-10T10:51:04;46.83;;;21.40;;
11998;SDS011;40817;51.520;9.954;2024-01-10T10:53:34;43.78;;;22.13;;
11998;SDS011;40817;51.520;9.954;2024-01-10T10:56:04;45.03;;;21.45;;
11998;SDS011;40817;51.520;9.954;2024-01-10T10:58:34;45.92;;;19.63;;
11998;SDS011;40817;51.520;9.954;2024-01-10T11:01:06;41.40;;;20.95;;
11998;SDS011;40817;51.520;9.954;2024-01-10T11:03:37;45.13;;;19.92;;
11998;SDS011;40817;51.520;9.954;2024-01-10T11:06:07;46.70;;;21.48;;
11998;SDS011;40817;51.520;9.954;2024-01-10T11:08:36;47.08;;;21.75;;
11998;SDS011;40817;51.520;9.954;2024-01-10T11:11:14;47.57;;;21.17;;
11998;SDS011;40817;51.520;9.954;2024-01-10T11:14:05;47.33;;;22.52;;
11998;SDS011;40817;51.520;9.954;2024-01-10T11:20:13;48.47;;;21.58;;
11998;SDS011;40817;51.520;9.954;2024-01-10T11:23:09;47.92;;;21.25;;
11998;SDS011;40817;51.520;9.954;2024-01-10T11:26:09;45.08;;;20.48;;
11998;SDS011;40817;51.520;9.954;2024-01-10T11:28:41;42.08;;;20.02;;
11998;SDS011;40817;51.520;9.954;2024-01-10T11:31:08;44.17;;;21.38;;
11998;SDS011;40817;51.520;9.954;2024-01-10T11:33:39;46.17;;;21.13;;
11998;SDS011;40817;51.520;9.954;2024-01-10T11:36:09;43.60;;;20.77;;
11998;SDS011;40817;51.520;9.954;2024-01-10T11:38:49;43.75;;;21.08;;
11998;SDS011;40817;51.520;9.954;2024-01-10T11:41:24;50.15;;;21.67;;
11998;SDS011;40817;51.520;9.954;2024-01-10T11:46:56;45.88;;;20.50;;
11998;SDS011;40817;51.520;9.954;2024-01-10T11:49:26;45.88;;;20.88;;
11998;SDS011;40817;51.520;9.954;2024-01-10T11:51:54;43.45;;;21.48;;
11998;SDS011;40817;51.520;9.954;2024-01-10T11:54:39;44.50;;;21.05;;
11998;SDS011;40817;51.520;9.954;2024-01-10T11:57:13;48.78;;;22.35;;
11998;SDS011;40817;51.520;9.954;2024-01-10T11:59:49;46.30;;;22.10;;
11998;SDS011;40817;51.520;9.954;2024-01-10T12:02:18;47.25;;;21.23;;
11998;SDS011;40817;51.520;9.954;2024-01-10T12:04:47;43.13;;;20.58;;
11998;SDS011;40817;51.520;9.954;2024-01-10T12:07:14;41.53;;;20.65;;
11998;SDS011;40817;51.520;9.954;2024-01-10T12:09:44;42.90;;;22.67;;
11998;SDS011;40817;51.520;9.954;2024-01-10T12:12:12;45.65;;;20.90;;
11998;SDS011;40817;51.520;9.954;2024-01-10T12:14:39;46.42;;;21.63;;
11998;SDS011;40817;51.520;9.954;2024-01-10T12:17:09;41.15;;;20.58;;
11998;SDS011;40817;51.520;9.954;2024-01-10T12:19:37;43.45;;;20.50;;
11998;SDS011;40817;51.520;9.954;2024-01-10T12:22:04;48.47;;;21.13;;
11998;SDS011;40817;51.520;9.954;2024-01-10T12:24:32;38.33;;;19.08;;
11998;SDS011;40817;51.520;9.954;2024-01-10T12:26:59;50.22;;;21.98;;
11998;SDS011;40817;51.520;9.954;2024-01-10T12:29:28;45.35;;;21.20;;
11998;SDS011;40817;51.520;9.954;2024-01-10T12:31:56;43.20;;;21.27;;
11998;SDS011;40817;51.520;9.954;2024-01-10T12:34:24;47.97;;;21.27;;
11998;SDS011;40817;51.520;9.954;2024-01-10T12:36:54;38.38;;;20.80;;
11998;SDS011;40817;51.520;9.954;2024-01-10T12:39:21;40.92;;;20.30;;
11998;SDS011;40817;51.520;9.954;2024-01-10T12:41:50;44.38;;;21.30;;
11998;SDS011;40817;51.520;9.954;2024-01-10T12:44:18;46.33;;;22.40;;
11998;SDS011;40817;51.520;9.954;2024-01-10T12:46:49;42.92;;;21.60;;
11998;SDS011;40817;51.520;9.954;2024-01-10T12:49:18;46.75;;;21.25;;
11998;SDS011;40817;51.520;9.954;2024-01-10T12:51:47;45.13;;;20.95;;
11998;SDS011;40817;51.520;9.954;2024-01-10T12:54:15;41.40;;;22.13;;
11998;SDS011;40817;51.520;9.954;2024-01-10T12:56:43;40.55;;;20.65;;
11998;SDS011;40817;51.520;9.954;2024-01-10T12:59:10;41.50;;;19.42;;
11998;SDS011;40817;51.520;9.954;2024-01-10T13:01:38;43.45;;;21.95;;
11998;SDS011;40817;51.520;9.954;2024-01-10T13:04:06;47.90;;;20.83;;
11998;SDS011;40817;51.520;9.954;2024-01-10T13:06:34;38.20;;;20.27;;
11998;SDS011;40817;51.520;9.954;2024-01-10T13:09:03;45.38;;;20.55;;
11998;SDS011;40817;51.520;9.954;2024-01-10T13:11:31;38.30;;;19.63;;
11998;SDS011;40817;51.520;9.954;2024-01-10T13:13:58;41.72;;;20.23;;
11998;SDS011;40817;51.520;9.954;2024-01-10T13:16:26;42.47;;;20.15;;
11998;SDS011;40817;51.520;9.954;2024-01-10T13:18:54;36.53;;;19.88;;
11998;SDS011;40817;51.520;9.954;2024-01-10T13:21:22;41.65;;;19.58;;
11998;SDS011;40817;51.520;9.954;2024-01-10T13:23:49;40.05;;;20.00;;
11998;SDS011;40817;51.520;9.954;2024-01-10T13:26:18;37.35;;;19.40;;
11998;SDS011;40817;51.520;9.954;2024-01-10T13:28:46;41.42;;;19.38;;
11998;SDS011;40817;51.520;9.954;2024-01-10T13:31:13;39.17;;;20.33;;
11998;SDS011;40817;51.520;9.954;2024-01-10T13:33:41;45.75;;;20.52;;
11998;SDS011;40817;51.520;9.954;2024-01-10T13:36:08;41.42;;;20.55;;
11998;SDS011;40817;51.520;9.954;2024-01-10T13:38:35;35.30;;;18.17;;
11998;SDS011;40817;51.520;9.954;2024-01-10T13:41:03;38.97;;;19.02;;
11998;SDS011;40817;51.520;9.954;2024-01-10T13:43:33;37.80;;;18.73;;
11998;SDS011;40817;51.520;9.954;2024-01-10T13:46:00;42.65;;;18.83;;
11998;SDS011;40817;51.520;9.954;2024-01-10T13:48:28;40.30;;;19.00;;
11998;SDS011;40817;51.520;9.954;2024-01-10T13:50:55;39.33;;;19.17;;
11998;SDS011;40817;51.520;9.954;2024-01-10T13:53:22;38.97;;;19.70;;
11998;SDS011;40817;51.520;9.954;2024-01-10T13:55:50;42.05;;;20.90;;
11998;SDS011;40817;51.520;9.954;2024-01-10T13:58:17;38.17;;;18.90;;
11998;SDS011;40817;51.520;9.954;2024-01-10T14:00:46;39.83;;;19.95;;
11998;SDS011;40817;51.520;9.954;2024-01-10T14:03:13;42.35;;;20.88;;
11998;SDS011;40817;51.520;9.954;2024-01-10T14:05:41;44.80;;;20.52;;
11998;SDS011;40817;51.520;9.954;2024-01-10T14:08:09;40.55;;;20.95;;
11998;SDS011;40817;51.520;9.954;2024-01-10T14:10:37;51.55;;;20.98;;
11998;SDS011;40817;51.520;9.954;2024-01-10T14:13:05;39.08;;;20.75;;
11998;SDS011;40817;51.520;9.954;2024-01-10T14:15:32;43.95;;;21.45;;
11998;SDS011;40817;51.520;9.954;2024-01-10T14:18:01;39.28;;;20.27;;
11998;SDS011;40817;51.520;9.954;2024-01-10T14:20:29;45.42;;;20.73;;
11998;SDS011;40817;51.520;9.954;2024-01-10T14:22:57;42.10;;;20.35;;
11998;SDS011;40817;51.520;9.954;2024-01-10T14:25:25;40.53;;;19.98;;
11998;SDS011;40817;51.520;9.954;2024-01-10T14:27:53;44.22;;;20.70;;
11998;SDS011;40817;51.520;9.954;2024-01-10T14:30:20;43.92;;;19.98;;
11998;SDS011;40817;51.520;9.954;2024-01-10T14:32:50;41.95;;;20.55;;
11998;SDS011;40817;51.520;9.954;2024-01-10T14:35:18;46.63;;;20.25;;